sensor_id;sensor_type;location;lat;lon;timestamp;P1;durP1;ratioP1;P2;durP2;ratioP2
27800;SDS011;15181;49.112;11.930;2022-07-29T00:01:43;6.10;;;5.60;;
27800;SDS011;15181;49.112;11.930;2022-07-29T00:04:10;6.32;;;5.60;;
27800;SDS011;15181;49.112;11.930;2022-07-29T00:06:39;6.70;;;5.80;;
27800;SDS011;15181;49.112;11.930;2022-07-29T00:09:06;6.40;;;5.80;;
27800;SDS011;15181;49.112;11.930;2022-07-29T00:11:33;7.05;;;6.03;;
27800;SDS011;15181;49.112;11.930;2022-07-29T00:14:01;8.50;;;6.15;;
27800;SDS011;15181;49.112;11.930;2022-07-29T00:16:28;6.43;;;5.82;;
27800;SDS011;15181;49.112;11.930;2022-07-29T00:18:57;6.32;;;5.80;;
27800;SDS011;15181;49.112;11.930;2022-07-29T00:21:24;6.43;;;5.82;;
27800;SDS011;15181;49.112;11.930;2022-07-29T00:23:52;6.47;;;5.80;;
27800;SDS011;15181;49.112;11.930;2022-07-29T00:26:20;6.97;;;5.90;;
27800;SDS011;15181;49.112;11.930;2022-07-29T00:28:47;6.32;;;5.45;;
27800;SDS011;15181;49.112;11.930;2022-07-29T00:31:14;6.63;;;5.80;;
27800;SDS011;15181;49.112;11.930;2022-07-29T00:33:41;7.03;;;6.13;;
27800;SDS011;15181;49.112;11.930;2022-07-29T00:36:09;6.70;;;6.10;;
27800;SDS011;15181;49.112;11.930;2022-07-29T00:38:34;7.13;;;6.13;;
27800;SDS011;15181;49.112;11.930;2022-07-29T00:41:03;6.45;;;5.85;;
27800;SDS011;15181;49.112;11.930;2022-07-29T00:43:30;6.10;;;5.55;;
27800;SDS011;15181;49.112;11.930;2022-07-29T00:46:00;6.63;;;5.80;;
27800;SDS011;15181;49.112;11.930;2022-07-29T00:48:27;6.28;;;5.68;;
27800;SDS011;15181;49.112;11.930;2022-07-29T00:50:56;6.43;;;5.80;;
27800;SDS011;15181;49.112;11.930;2022-07-29T00:53:24;6.05;;;5.55;;
27800;SDS011;15181;49.112;11.930;2022-07-29T00:55:52;6.30;;;5.40;;
27800;SDS011;15181;49.112;11.930;2022-07-29T00:58:22;6.53;;;6.00;;
27800;SDS011;15181;49.112;11.930;2022-07-29T01:00:50;6.45;;;5.80;;
27800;SDS011;15181;49.112;11.930;2022-07-29T01:03:17;6.55;;;5.93;;
27800;SDS011;15181;49.112;11.930;2022-07-29T01:05:45;6.38;;;5.80;;
27800;SDS011;15181;49.112;11.930;2022-07-29T01:08:13;6.07;;;5.55;;
27800;SDS011;15181;49.112;11.930;2022-07-29T01:10:41;6.32;;;5.70;;
27800;SDS011;15181;49.112;11.930;2022-07-29T01:13:11;6.50;;;5.90;;
27800;SDS011;15181;49.112;11.930;2022-07-29T01:15:41;6.10;;;5.60;;
27800;SDS011;15181;49.112;11.930;2022-07-29T01:18:14;6.85;;;5.65;;
27800;SDS011;15181;49.112;11.930;2022-07-29T01:20:51;5.75;;;5.25;;
27800;SDS011;15181;49.112;11.930;2022-07-29T01:23:53;6.68;;;6.07;;
27800;SDS011;15181;49.112;11.930;2022-07-29T01:26:45;6.30;;;5.70;;
27800;SDS011;15181;49.112;11.930;2022-07-29T01:29:21;7.68;;;5.88;;
27800;SDS011;15181;49.112;11.930;2022-07-29T01:31:54;9.75;;;6.60;;
27800;SDS011;15181;49.112;11.930;2022-07-29T01:34:27;6.30;;;5.70;;
27800;SDS011;15181;49.112;11.930;2022-07-29T01:37:02;6.43;;;5.70;;
27800;SDS011;15181;49.112;11.930;2022-07-29T01:39:35;6.47;;;5.88;;
27800;SDS011;15181;49.112;11.930;2022-07-29T01:42:06;6.30;;;5.72;;
27800;SDS011;15181;49.112;11.930;2022-07-29T01:47:12;7.03;;;6.30;;
27800;SDS011;15181;49.112;11.930;2022-07-29T01:49:46;6.65;;;6.05;;
27800;SDS011;15181;49.112;11.930;2022-07-29T01:52:19;6.43;;;5.93;;
27800;SDS011;15181;49.112;11.930;2022-07-29T01:54:50;6.05;;;5.55;;
27800;SDS011;15181;49.112;11.930;2022-07-29T01:57:21;6.13;;;5.60;;
27800;SDS011;15181;49.112;11.930;2022-07-29T01:59:54;7.80;;;5.70;;
27800;SDS011;15181;49.112;11.930;2022-07-29T02:02:24;7.32;;;5.90;;
27800;SDS011;15181;49.112;11.930;2022-07-29T02:04:54;9.75;;;5.80;;
27800;SDS011;15181;49.112;11.930;2022-07-29T02:07:24;7.45;;;5.40;;
27800;SDS011;15181;49.112;11.930;2022-07-29T02:09:54;6.60;;;5.80;;
27800;SDS011;15181;49.112;11.930;2022-07-29T02:12:21;6.55;;;5.88;;
27800;SDS011;15181;49.112;11.930;2022-07-29T02:14:52;6.45;;;5.85;;
27800;SDS011;15181;49.112;11.930;2022-07-29T02:17:25;6.70;;;5.88;;
27800;SDS011;15181;49.112;11.930;2022-07-29T02:19:56;6.13;;;5.53;;
27800;SDS011;15181;49.112;11.930;2022-07-29T02:22:25;6.72;;;6.03;;
27800;SDS011;15181;49.112;11.930;2022-07-29T02:24:54;5.82;;;5.22;;
27800;SDS011;15181;49.112;11.930;2022-07-29T02:27:23;6.25;;;5.65;;
27800;SDS011;15181;49.112;11.930;2022-07-29T02:29:54;6.25;;;5.65;;
27800;SDS011;15181;49.112;11.930;2022-07-29T02:32:24;6.35;;;5.72;;
27800;SDS011;15181;49.112;11.930;2022-07-29T02:34:53;7.00;;;6.10;;
27800;SDS011;15181;49.112;11.930;2022-07-29T02:37:21;6.10;;;5.60;;
27800;SDS011;15181;49.112;11.930;2022-07-29T02:39:50;6.70;;;6.10;;
27800;SDS011;15181;49.112;11.930;2022-07-29T02:42:18;6.40;;;5.80;;
27800;SDS011;15181;49.112;11.930;2022-07-29T02:44:48;9.45;;;6.32;;
27800;SDS011;15181;49.112;11.930;2022-07-29T02:47:18;8.43;;;6.22;;
27800;SDS011;15181;49.112;11.930;2022-07-29T02:49:48;6.47;;;5.88;;
27800;SDS011;15181;49.112;11.930;2022-07-29T02:52:22;6.90;;;6.20;;
27800;SDS011;15181;49.112;11.930;2022-07-29T02:54:54;8.00;;;5.78;;
27800;SDS011;15181;49.112;11.930;2022-07-29T02:57:30;8.50;;;6.10;;
27800;SDS011;15181;49.112;11.930;2022-07-29T03:00:02;6.90;;;6.30;;
27800;SDS011;15181;49.112;11.930;2022-07-29T03:02:35;6.88;;;6.28;;
27800;SDS011;15181;49.112;11.930;2022-07-29T03:05:04;8.55;;;6.25;;
27800;SDS011;15181;49.112;11.930;2022-07-29T03:07:35;6.40;;;5.80;;
27800;SDS011;15181;49.112;11.930;2022-07-29T03:10:05;6.78;;;6.13;;
27800;SDS011;15181;49.112;11.930;2022-07-29T03:12:34;6.75;;;6.25;;
27800;SDS011;15181;49.112;11.930;2022-07-29T03:15:02;7.05;;;6.35;;
27800;SDS011;15181;49.112;11.930;2022-07-29T03:17:29;7.68;;;6.15;;
27800;SDS011;15181;49.112;11.930;2022-07-29T03:19:58;6.57;;;5.88;;
27800;SDS011;15181;49.112;11.930;2022-07-29T03:22:26;6.57;;;5.88;;
27800;SDS011;15181;49.112;11.930;2022-07-29T03:24:54;6.68;;;6.07;;
27800;SDS011;15181;49.112;11.930;2022-07-29T03:27:21;6.43;;;5.82;;
27800;SDS011;15181;49.112;11.930;2022-07-29T03:29:48;6.75;;;5.90;;
27800;SDS011;15181;49.112;11.930;2022-07-29T03:32:15;6.65;;;5.93;;
27800;SDS011;15181;49.112;11.930;2022-07-29T03:34:42;7.10;;;6.47;;
27800;SDS011;15181;49.112;11.930;2022-07-29T03:37:10;6.97;;;6.22;;
27800;SDS011;15181;49.112;11.930;2022-07-29T03:39:38;8.30;;;6.28;;
27800;SDS011;15181;49.112;11.930;2022-07-29T03:42:08;7.00;;;6.40;;
27800;SDS011;15181;49.112;11.930;2022-07-29T03:44:39;8.60;;;6.38;;
27800;SDS011;15181;49.112;11.930;2022-07-29T03:47:09;6.70;;;6.10;;
27800;SDS011;15181;49.112;11.930;2022-07-29T03:49:40;6.80;;;6.15;;
27800;SDS011;15181;49.112;11.930;2022-07-29T03:52:09;6.18;;;5.57;;
27800;SDS011;15181;49.112;11.930;2022-07-29T03:54:37;6.82;;;6.20;;
27800;SDS011;15181;49.112;11.930;2022-07-29T03:57:05;7.03;;;5.82;;
27800;SDS011;15181;49.112;11.930;2022-07-29T03:59:33;7.15;;;5.50;;
27800;SDS011;15181;49.112;11.930;2022-07-29T04:02:02;6.55;;;6.00;;
27800;SDS011;15181;49.112;11.930;2022-07-29T04:04:31;6.82;;;6.22;;
27800;SDS011;15181;49.112;11.930;2022-07-29T04:06:59;7.00;;;6.40;;
27800;SDS011;15181;49.112;11.930;2022-07-29T04:09:28;7.32;;;6.50;;
27800;SDS011;15181;49.112;11.930;2022-07-29T04:11:55;7.03;;;6.32;;
27800;SDS011;15181;49.112;11.930;2022-07-29T04:14:22;7.07;;;6.43;;
27800;SDS011;15181;49.112;11.930;2022-07-29T04:16:48;7.25;;;6.60;;
27800;SDS011;15181;49.112;11.930;2022-07-29T04:19:15;7.03;;;6.18;;
27800;SDS011;15181;49.112;11.930;2022-07-29T04:21:42;6.70;;;6.10;;
27800;SDS011;15181;49.112;11.930;2022-07-29T04:24:10;6.57;;;5.97;;
27800;SDS011;15181;49.112;11.930;2022-07-29T04:26:38;6.65;;;5.85;;
27800;SDS011;15181;49.112;11.930;2022-07-29T04:29:05;7.53;;;6.30;;
27800;SDS011;15181;49.112;11.930;2022-07-29T04:31:32;6.97;;;6.35;;
27800;SDS011;15181;49.112;11.930;2022-07-29T04:33:59;7.38;;;6.75;;
27800;SDS011;15181;49.112;11.930;2022-07-29T04:36:26;7.68;;;7.00;;
27800;SDS011;15181;49.112;11.930;2022-07-29T04:38:52;6.80;;;6.20;;
27800;SDS011;15181;49.112;11.930;2022-07-29T04:41:19;6.93;;;6.30;;
27800;SDS011;15181;49.112;11.930;2022-07-29T04:43:47;7.40;;;6.43;;
27800;SDS011;15181;49.112;11.930;2022-07-29T04:46:14;7.47;;;6.78;;
27800;SDS011;15181;49.112;11.930;2022-07-29T04:48:41;7.43;;;6.72;;
27800;SDS011;15181;49.112;11.930;2022-07-29T04:51:11;7.50;;;6.80;;
27800;SDS011;15181;49.112;11.930;2022-07-29T04:53:38;7.13;;;6.15;;
27800;SDS011;15181;49.112;11.930;2022-07-29T04:56:04;7.38;;;6.63;;
27800;SDS011;15181;49.112;11.930;2022-07-29T04:58:32;7.13;;;6.30;;
27800;SDS011;15181;49.112;11.930;2022-07-29T05:01:02;7.28;;;6.25;;
27800;SDS011;15181;49.112;11.930;2022-07-29T05:03:29;7.25;;;6.55;;
27800;SDS011;15181;49.112;11.930;2022-07-29T05:05:56;7.03;;;6.40;;
27800;SDS011;15181;49.112;11.930;2022-07-29T05:08:23;6.97;;;6.38;;
27800;SDS011;15181;49.112;11.930;2022-07-29T05:10:50;7.35;;;6.65;;
27800;SDS011;15181;49.112;11.930;2022-07-29T05:13:17;6.70;;;6.10;;
27800;SDS011;15181;49.112;11.930;2022-07-29T05:15:44;6.85;;;6.25;;
27800;SDS011;15181;49.112;11.930;2022-07-29T05:18:12;7.20;;;6.35;;
27800;SDS011;15181;49.112;11.930;2022-07-29T05:20:39;7.22;;;6.43;;
27800;SDS011;15181;49.112;11.930;2022-07-29T05:23:06;8.57;;;6.53;;
27800;SDS011;15181;49.112;11.930;2022-07-29T05:25:33;6.97;;;6.38;;
27800;SDS011;15181;49.112;11.930;2022-07-29T05:28:00;6.57;;;6.00;;
27800;SDS011;15181;49.112;11.930;2022-07-29T05:30:26;7.07;;;6.38;;
27800;SDS011;15181;49.112;11.930;2022-07-29T05:32:53;7.13;;;6.53;;
27800;SDS011;15181;49.112;11.930;2022-07-29T05:35:21;7.07;;;6.47;;
27800;SDS011;15181;49.112;11.930;2022-07-29T05:37:48;7.53;;;6.68;;
27800;SDS011;15181;49.112;11.930;2022-07-29T05:40:15;7.60;;;6.88;;
27800;SDS011;15181;49.112;11.930;2022-07-29T05:42:42;7.13;;;6.43;;
27800;SDS011;15181;49.112;11.930;2022-07-29T05:45:10;7.80;;;7.10;;
27800;SDS011;15181;49.112;11.930;2022-07-29T05:47:37;9.10;;;6.93;;
27800;SDS011;15181;49.112;11.930;2022-07-29T05:50:04;7.78;;;7.10;;
27800;SDS011;15181;49.112;11.930;2022-07-29T05:52:33;7.93;;;7.20;;
27800;SDS011;15181;49.112;11.930;2022-07-29T05:54:59;7.70;;;7.10;;
27800;SDS011;15181;49.112;11.930;2022-07-29T05:57:29;7.68;;;6.90;;
27800;SDS011;15181;49.112;11.930;2022-07-29T05:59:56;7.35;;;6.65;;
27800;SDS011;15181;49.112;11.930;2022-07-29T06:02:22;7.72;;;7.03;;
27800;SDS011;15181;49.112;11.930;2022-07-29T06:04:49;7.57;;;6.60;;
27800;SDS011;15181;49.112;11.930;2022-07-29T06:07:16;7.78;;;7.07;;
27800;SDS011;15181;49.112;11.930;2022-07-29T06:09:44;8.05;;;7.25;;
27800;SDS011;15181;49.112;11.930;2022-07-29T06:12:11;7.82;;;7.05;;
27800;SDS011;15181;49.112;11.930;2022-07-29T06:14:39;8.05;;;7.25;;
27800;SDS011;15181;49.112;11.930;2022-07-29T06:17:06;7.45;;;6.80;;
27800;SDS011;15181;49.112;11.930;2022-07-29T06:19:33;8.52;;;7.22;;
27800;SDS011;15181;49.112;11.930;2022-07-29T06:22:01;7.47;;;6.85;;
27800;SDS011;15181;49.112;11.930;2022-07-29T06:24:28;7.85;;;7.18;;
27800;SDS011;15181;49.112;11.930;2022-07-29T06:26:57;7.05;;;6.45;;
27800;SDS011;15181;49.112;11.930;2022-07-29T06:29:23;7.70;;;7.00;;
27800;SDS011;15181;49.112;11.930;2022-07-29T06:31:50;9.48;;;6.90;;
27800;SDS011;15181;49.112;11.930;2022-07-29T06:34:17;7.47;;;6.80;;
27800;SDS011;15181;49.112;11.930;2022-07-29T06:36:44;7.95;;;6.72;;
27800;SDS011;15181;49.112;11.930;2022-07-29T06:39:11;7.70;;;7.00;;
27800;SDS011;15181;49.112;11.930;2022-07-29T06:41:38;7.63;;;6.90;;
27800;SDS011;15181;49.112;11.930;2022-07-29T06:44:06;7.75;;;7.05;;
27800;SDS011;15181;49.112;11.930;2022-07-29T06:46:33;7.90;;;7.10;;
27800;SDS011;15181;49.112;11.930;2022-07-29T06:49:01;7.72;;;6.88;;
27800;SDS011;15181;49.112;11.930;2022-07-29T06:51:28;8.23;;;7.35;;
27800;SDS011;15181;49.112;11.930;2022-07-29T06:53:55;7.90;;;7.20;;
27800;SDS011;15181;49.112;11.930;2022-07-29T06:56:22;7.80;;;7.00;;
27800;SDS011;15181;49.112;11.930;2022-07-29T06:58:50;7.85;;;7.13;;
27800;SDS011;15181;49.112;11.930;2022-07-29T07:01:18;7.35;;;6.65;;
27800;SDS011;15181;49.112;11.930;2022-07-29T07:03:45;10.32;;;6.80;;
27800;SDS011;15181;49.112;11.930;2022-07-29T07:06:12;7.07;;;6.47;;
27800;SDS011;15181;49.112;11.930;2022-07-29T07:08:39;7.45;;;6.78;;
27800;SDS011;15181;49.112;11.930;2022-07-29T07:11:06;7.35;;;6.65;;
27800;SDS011;15181;49.112;11.930;2022-07-29T07:13:33;7.65;;;6.95;;
27800;SDS011;15181;49.112;11.930;2022-07-29T07:16:00;9.27;;;6.63;;
27800;SDS011;15181;49.112;11.930;2022-07-29T07:18:28;7.57;;;6.90;;
27800;SDS011;15181;49.112;11.930;2022-07-29T07:20:55;7.25;;;6.45;;
27800;SDS011;15181;49.112;11.930;2022-07-29T07:23:23;7.45;;;6.85;;
27800;SDS011;15181;49.112;11.930;2022-07-29T07:25:51;7.45;;;6.70;;
27800;SDS011;15181;49.112;11.930;2022-07-29T07:28:19;8.20;;;6.93;;
27800;SDS011;15181;49.112;11.930;2022-07-29T07:30:46;7.13;;;6.43;;
27800;SDS011;15181;49.112;11.930;2022-07-29T07:33:13;6.80;;;6.20;;
27800;SDS011;15181;49.112;11.930;2022-07-29T07:35:41;6.75;;;6.15;;
27800;SDS011;15181;49.112;11.930;2022-07-29T07:38:09;7.70;;;6.97;;
27800;SDS011;15181;49.112;11.930;2022-07-29T07:40:36;9.60;;;6.25;;
27800;SDS011;15181;49.112;11.930;2022-07-29T07:43:03;7.88;;;6.60;;
27800;SDS011;15181;49.112;11.930;2022-07-29T07:45:30;6.85;;;6.25;;
27800;SDS011;15181;49.112;11.930;2022-07-29T07:47:58;7.45;;;6.28;;
27800;SDS011;15181;49.112;11.930;2022-07-29T07:50:25;7.22;;;6.35;;
27800;SDS011;15181;49.112;11.930;2022-07-29T07:52:54;6.93;;;6.30;;
27800;SDS011;15181;49.112;11.930;2022-07-29T07:55:23;7.30;;;6.57;;
27800;SDS011;15181;49.112;11.930;2022-07-29T07:57:50;7.32;;;6.63;;
27800;SDS011;15181;49.112;11.930;2022-07-29T08:00:17;7.38;;;6.78;;
27800;SDS011;15181;49.112;11.930;2022-07-29T08:02:44;6.63;;;6.05;;
27800;SDS011;15181;49.112;11.930;2022-07-29T08:05:12;6.57;;;6.07;;
27800;SDS011;15181;49.112;11.930;2022-07-29T08:07:42;8.02;;;6.20;;
27800;SDS011;15181;49.112;11.930;2022-07-29T08:10:11;7.50;;;6.80;;
27800;SDS011;15181;49.112;11.930;2022-07-29T08:12:38;8.15;;;6.40;;
27800;SDS011;15181;49.112;11.930;2022-07-29T08:15:05;7.40;;;6.45;;
27800;SDS011;15181;49.112;11.930;2022-07-29T08:17:33;7.47;;;6.70;;
27800;SDS011;15181;49.112;11.930;2022-07-29T08:20:00;9.25;;;6.28;;
27800;SDS011;15181;49.112;11.930;2022-07-29T08:22:27;7.95;;;6.32;;
27800;SDS011;15181;49.112;11.930;2022-07-29T08:24:54;7.13;;;6.25;;
27800;SDS011;15181;49.112;11.930;2022-07-29T08:27:22;6.82;;;6.22;;
27800;SDS011;15181;49.112;11.930;2022-07-29T08:29:51;8.55;;;6.68;;
27800;SDS011;15181;49.112;11.930;2022-07-29T08:32:18;6.82;;;6.30;;
27800;SDS011;15181;49.112;11.930;2022-07-29T08:34:45;8.05;;;6.70;;
27800;SDS011;15181;49.112;11.930;2022-07-29T08:37:12;7.60;;;6.90;;
27800;SDS011;15181;49.112;11.930;2022-07-29T08:39:39;7.43;;;6.82;;
27800;SDS011;15181;49.112;11.930;2022-07-29T08:42:06;10.18;;;6.80;;
27800;SDS011;15181;49.112;11.930;2022-07-29T08:44:36;7.88;;;6.78;;
27800;SDS011;15181;49.112;11.930;2022-07-29T08:47:03;7.25;;;6.55;;
27800;SDS011;15181;49.112;11.930;2022-07-29T08:49:31;7.00;;;6.40;;
27800;SDS011;15181;49.112;11.930;2022-07-29T08:51:59;7.93;;;6.72;;
27800;SDS011;15181;49.112;11.930;2022-07-29T08:54:26;9.23;;;6.90;;
27800;SDS011;15181;49.112;11.930;2022-07-29T08:56:53;7.45;;;6.85;;
27800;SDS011;15181;49.112;11.930;2022-07-29T08:59:22;7.68;;;6.97;;
27800;SDS011;15181;49.112;11.930;2022-07-29T09:01:53;7.53;;;6.90;;
27800;SDS011;15181;49.112;11.930;2022-07-29T09:04:24;7.47;;;6.38;;
27800;SDS011;15181;49.112;11.930;2022-07-29T09:06:53;7.85;;;7.05;;
27800;SDS011;15181;49.112;11.930;2022-07-29T09:09:23;9.60;;;6.90;;
27800;SDS011;15181;49.112;11.930;2022-07-29T09:11:50;8.80;;;7.00;;
27800;SDS011;15181;49.112;11.930;2022-07-29T09:14:18;8.38;;;7.38;;
27800;SDS011;15181;49.112;11.930;2022-07-29T09:16:46;7.50;;;6.80;;
27800;SDS011;15181;49.112;11.930;2022-07-29T09:19:35;7.90;;;7.10;;
27800;SDS011;15181;49.112;11.930;2022-07-29T09:22:04;10.57;;;7.18;;
27800;SDS011;15181;49.112;11.930;2022-07-29T09:24:42;9.07;;;7.05;;
27800;SDS011;15181;49.112;11.930;2022-07-29T09:27:11;7.80;;;7.10;;
27800;SDS011;15181;49.112;11.930;2022-07-29T09:29:47;7.63;;;6.85;;
27800;SDS011;15181;49.112;11.930;2022-07-29T09:32:21;7.70;;;6.95;;
27800;SDS011;15181;49.112;11.930;2022-07-29T09:34:49;9.18;;;7.13;;
27800;SDS011;15181;49.112;11.930;2022-07-29T09:37:25;7.68;;;6.47;;
27800;SDS011;15181;49.112;11.930;2022-07-29T09:39:52;7.47;;;6.88;;
27800;SDS011;15181;49.112;11.930;2022-07-29T09:42:27;9.82;;;7.20;;
27800;SDS011;15181;49.112;11.930;2022-07-29T09:44:54;7.40;;;6.70;;
27800;SDS011;15181;49.112;11.930;2022-07-29T09:47:21;7.20;;;6.60;;
27800;SDS011;15181;49.112;11.930;2022-07-29T09:49:53;8.38;;;7.57;;
27800;SDS011;15181;49.112;11.930;2022-07-29T09:52:22;8.55;;;7.28;;
27800;SDS011;15181;49.112;11.930;2022-07-29T09:54:49;8.02;;;7.32;;
27800;SDS011;15181;49.112;11.930;2022-07-29T09:57:22;8.18;;;7.38;;
27800;SDS011;15181;49.112;11.930;2022-07-29T09:59:57;8.13;;;7.32;;
27800;SDS011;15181;49.112;11.930;2022-07-29T10:02:29;9.45;;;7.40;;
27800;SDS011;15181;49.112;11.930;2022-07-29T10:04:59;7.93;;;7.22;;
27800;SDS011;15181;49.112;11.930;2022-07-29T10:07:28;7.78;;;7.03;;
27800;SDS011;15181;49.112;11.930;2022-07-29T10:10:10;10.48;;;7.57;;
27800;SDS011;15181;49.112;11.930;2022-07-29T10:12:51;7.25;;;6.65;;
27800;SDS011;15181;49.112;11.930;2022-07-29T10:15:20;7.93;;;7.03;;
27800;SDS011;15181;49.112;11.930;2022-07-29T10:17:50;8.10;;;7.30;;
27800;SDS011;15181;49.112;11.930;2022-07-29T10:20:18;7.90;;;7.10;;
27800;SDS011;15181;49.112;11.930;2022-07-29T10:22:46;8.13;;;6.70;;
27800;SDS011;15181;49.112;11.930;2022-07-29T10:25:14;7.35;;;6.75;;
27800;SDS011;15181;49.112;11.930;2022-07-29T10:27:42;7.53;;;6.20;;
27800;SDS011;15181;49.112;11.930;2022-07-29T10:30:10;7.82;;;7.13;;
27800;SDS011;15181;49.112;11.930;2022-07-29T10:32:51;6.88;;;6.28;;
27800;SDS011;15181;49.112;11.930;2022-07-29T10:35:36;6.95;;;6.22;;
27800;SDS011;15181;49.112;11.930;2022-07-29T10:38:15;6.50;;;5.90;;
27800;SDS011;15181;49.112;11.930;2022-07-29T10:41:02;7.50;;;6.80;;
27800;SDS011;15181;49.112;11.930;2022-07-29T10:43:53;7.57;;;6.35;;
27800;SDS011;15181;49.112;11.930;2022-07-29T10:46:22;6.93;;;6.30;;
27800;SDS011;15181;49.112;11.930;2022-07-29T10:49:10;7.53;;;6.20;;
27800;SDS011;15181;49.112;11.930;2022-07-29T10:51:53;7.30;;;6.70;;
27800;SDS011;15181;49.112;11.930;2022-07-29T10:57:20;7.60;;;6.90;;
27800;SDS011;15181;49.112;11.930;2022-07-29T10:59:51;7.60;;;7.00;;
27800;SDS011;15181;49.112;11.930;2022-07-29T11:02:45;7.13;;;6.53;;
27800;SDS011;15181;49.112;11.930;2022-07-29T11:05:17;6.80;;;6.10;;
27800;SDS011;15181;49.112;11.930;2022-07-29T11:10:46;10.57;;;7.28;;
27800;SDS011;15181;49.112;11.930;2022-07-29T11:16:15;7.60;;;6.90;;
27800;SDS011;15181;49.112;11.930;2022-07-29T11:21:49;9.10;;;7.47;;
27800;SDS011;15181;49.112;11.930;2022-07-29T11:24:19;8.02;;;6.78;;
27800;SDS011;15181;49.112;11.930;2022-07-29T11:29:35;7.78;;;6.97;;
27800;SDS011;15181;49.112;11.930;2022-07-29T11:32:10;7.72;;;6.97;;
27800;SDS011;15181;49.112;11.930;2022-07-29T11:34:39;7.53;;;6.75;;
27800;SDS011;15181;49.112;11.930;2022-07-29T11:37:22;9.77;;;7.38;;
27800;SDS011;15181;49.112;11.930;2022-07-29T11:42:39;7.70;;;7.00;;
27800;SDS011;15181;49.112;11.930;2022-07-29T11:45:09;8.00;;;7.10;;
27800;SDS011;15181;49.112;11.930;2022-07-29T11:47:39;7.57;;;6.78;;
27800;SDS011;15181;49.112;11.930;2022-07-29T11:50:08;7.13;;;6.50;;
27800;SDS011;15181;49.112;11.930;2022-07-29T11:52:38;7.43;;;6.82;;
27800;SDS011;15181;49.112;11.930;2022-07-29T11:55:12;6.90;;;6.40;;
27800;SDS011;15181;49.112;11.930;2022-07-29T11:57:46;10.57;;;7.07;;
27800;SDS011;15181;49.112;11.930;2022-07-29T12:00:20;6.87;;;6.17;;
27800;SDS011;15181;49.112;11.930;2022-07-29T12:02:50;6.88;;;6.30;;
27800;SDS011;15181;49.112;11.930;2022-07-29T12:05:17;9.07;;;6.90;;
27800;SDS011;15181;49.112;11.930;2022-07-29T12:07:45;9.07;;;6.57;;
27800;SDS011;15181;49.112;11.930;2022-07-29T12:10:14;6.45;;;5.95;;
27800;SDS011;15181;49.112;11.930;2022-07-29T12:12:42;6.88;;;6.32;;
27800;SDS011;15181;49.112;11.930;2022-07-29T12:15:15;6.82;;;6.22;;
27800;SDS011;15181;49.112;11.930;2022-07-29T12:17:45;6.63;;;6.00;;
27800;SDS011;15181;49.112;11.930;2022-07-29T12:20:13;6.95;;;6.30;;
27800;SDS011;15181;49.112;11.930;2022-07-29T12:22:47;11.23;;;6.88;;
27800;SDS011;15181;49.112;11.930;2022-07-29T12:25:15;6.70;;;6.13;;
27800;SDS011;15181;49.112;11.930;2022-07-29T12:27:43;6.40;;;5.90;;
27800;SDS011;15181;49.112;11.930;2022-07-29T12:30:11;11.25;;;6.40;;
27800;SDS011;15181;49.112;11.930;2022-07-29T12:32:40;8.98;;;6.70;;
27800;SDS011;15181;49.112;11.930;2022-07-29T12:35:10;6.18;;;5.68;;
27800;SDS011;15181;49.112;11.930;2022-07-29T12:37:40;7.00;;;6.30;;
27800;SDS011;15181;49.112;11.930;2022-07-29T12:40:09;5.93;;;5.38;;
27800;SDS011;15181;49.112;11.930;2022-07-29T12:42:39;6.43;;;5.93;;
27800;SDS011;15181;49.112;11.930;2022-07-29T12:45:06;6.20;;;5.70;;
27800;SDS011;15181;49.112;11.930;2022-07-29T12:47:33;6.40;;;5.90;;
27800;SDS011;15181;49.112;11.930;2022-07-29T12:50:17;6.32;;;5.82;;
27800;SDS011;15181;49.112;11.930;2022-07-29T12:52:44;6.35;;;5.85;;
27800;SDS011;15181;49.112;11.930;2022-07-29T12:55:12;6.45;;;5.85;;
27800;SDS011;15181;49.112;11.930;2022-07-29T12:57:48;6.72;;;6.00;;
27800;SDS011;15181;49.112;11.930;2022-07-29T13:00:21;6.00;;;5.50;;
27800;SDS011;15181;49.112;11.930;2022-07-29T13:02:54;6.10;;;5.57;;
27800;SDS011;15181;49.112;11.930;2022-07-29T13:05:21;6.40;;;5.90;;
27800;SDS011;15181;49.112;11.930;2022-07-29T13:07:49;6.20;;;5.70;;
27800;SDS011;15181;49.112;11.930;2022-07-29T13:10:17;6.90;;;6.30;;
27800;SDS011;15181;49.112;11.930;2022-07-29T13:13:02;6.45;;;5.95;;
27800;SDS011;15181;49.112;11.930;2022-07-29T13:15:30;6.28;;;5.78;;
27800;SDS011;15181;49.112;11.930;2022-07-29T13:17:58;6.68;;;6.10;;
27800;SDS011;15181;49.112;11.930;2022-07-29T13:20:26;7.80;;;6.47;;
27800;SDS011;15181;49.112;11.930;2022-07-29T13:22:55;7.15;;;6.55;;
27800;SDS011;15181;49.112;11.930;2022-07-29T13:25:23;6.70;;;6.10;;
27800;SDS011;15181;49.112;11.930;2022-07-29T13:27:50;6.95;;;6.45;;
27800;SDS011;15181;49.112;11.930;2022-07-29T13:30:20;7.35;;;6.65;;
27800;SDS011;15181;49.112;11.930;2022-07-29T13:32:48;8.20;;;7.40;;
27800;SDS011;15181;49.112;11.930;2022-07-29T13:35:16;6.93;;;6.40;;
27800;SDS011;15181;49.112;11.930;2022-07-29T13:37:43;7.47;;;6.88;;
27800;SDS011;15181;49.112;11.930;2022-07-29T13:40:11;7.25;;;6.57;;
27800;SDS011;15181;49.112;11.930;2022-07-29T13:42:39;8.20;;;7.13;;
27800;SDS011;15181;49.112;11.930;2022-07-29T13:45:06;7.57;;;6.45;;
27800;SDS011;15181;49.112;11.930;2022-07-29T13:47:36;7.47;;;6.70;;
27800;SDS011;15181;49.112;11.930;2022-07-29T13:50:03;7.53;;;6.80;;
27800;SDS011;15181;49.112;11.930;2022-07-29T13:52:31;7.57;;;6.82;;
27800;SDS011;15181;49.112;11.930;2022-07-29T13:54:59;7.00;;;6.40;;
27800;SDS011;15181;49.112;11.930;2022-07-29T13:57:26;7.97;;;6.63;;
27800;SDS011;15181;49.112;11.930;2022-07-29T13:59:53;7.35;;;6.75;;
27800;SDS011;15181;49.112;11.930;2022-07-29T14:02:20;8.52;;;7.10;;
27800;SDS011;15181;49.112;11.930;2022-07-29T14:04:49;8.18;;;6.97;;
27800;SDS011;15181;49.112;11.930;2022-07-29T14:07:16;7.28;;;6.57;;
27800;SDS011;15181;49.112;11.930;2022-07-29T14:09:43;8.13;;;7.10;;
27800;SDS011;15181;49.112;11.930;2022-07-29T14:12:10;7.43;;;6.75;;
27800;SDS011;15181;49.112;11.930;2022-07-29T14:14:37;7.50;;;6.90;;
27800;SDS011;15181;49.112;11.930;2022-07-29T14:17:04;7.50;;;6.90;;
27800;SDS011;15181;49.112;11.930;2022-07-29T14:19:32;7.38;;;6.78;;
27800;SDS011;15181;49.112;11.930;2022-07-29T14:22:02;7.80;;;7.20;;
27800;SDS011;15181;49.112;11.930;2022-07-29T14:24:29;7.57;;;6.85;;
27800;SDS011;15181;49.112;11.930;2022-07-29T14:26:56;7.80;;;7.13;;
27800;SDS011;15181;49.112;11.930;2022-07-29T14:29:23;7.90;;;7.15;;
27800;SDS011;15181;49.112;11.930;2022-07-29T14:31:50;7.38;;;6.78;;
27800;SDS011;15181;49.112;11.930;2022-07-29T14:34:17;6.90;;;6.32;;
27800;SDS011;15181;49.112;11.930;2022-07-29T14:36:44;7.63;;;7.00;;
27800;SDS011;15181;49.112;11.930;2022-07-29T14:39:12;7.32;;;6.60;;
27800;SDS011;15181;49.112;11.930;2022-07-29T14:41:40;7.20;;;6.70;;
27800;SDS011;15181;49.112;11.930;2022-07-29T14:44:08;7.30;;;6.68;;
27800;SDS011;15181;49.112;11.930;2022-07-29T14:46:35;7.18;;;6.57;;
27800;SDS011;15181;49.112;11.930;2022-07-29T14:49:01;7.20;;;6.50;;
27800;SDS011;15181;49.112;11.930;2022-07-29T14:51:28;6.78;;;6.18;;
27800;SDS011;15181;49.112;11.930;2022-07-29T14:53:56;7.25;;;6.55;;
27800;SDS011;15181;49.112;11.930;2022-07-29T14:56:24;7.28;;;6.57;;
27800;SDS011;15181;49.112;11.930;2022-07-29T14:58:52;7.22;;;6.60;;
27800;SDS011;15181;49.112;11.930;2022-07-29T15:01:18;7.25;;;6.68;;
27800;SDS011;15181;49.112;11.930;2022-07-29T15:03:45;7.05;;;6.43;;
27800;SDS011;15181;49.112;11.930;2022-07-29T15:06:12;7.65;;;6.68;;